Sevenpersons, Canada
Current Conditions -  °F | °C
As of 6:00 PM on Tuesday 21 Oct 2014 (Local Time) from CYXH Reporting Station
Rain Showers Rain Showers  
Wind Chill: 54°   Ceiling: 6500
Heat Index: 54°   Visibility: 15mi
Dew Point: 46°   Wind: 15mph
Humidity: 77%   Direction: 240°WSW
Pressure: 29.67"   Gusts: NA
Location:  49.87°N, 110.9°W
Report Text: CYXH 220000Z 24013KT 15SM -SHRA OVC065 12/08 A2967 RMK SC8 SLP059 DENSITY ALT 2700FT
Loading
Personal Weather Stations






























Interactive Weather Map
Tropical Storm Tracking
New forecast layout! Learn more

10-Day Weather Forecast

Advertisements
Track Severe Weather on mobile